createdAt,value
2019-03-12T00:04:58.165Z,4.57
2019-03-12T00:10:04.718Z,4.20
2019-03-12T00:15:06.387Z,4.50
2019-03-12T00:20:07.971Z,4.60
2019-03-12T00:25:12.143Z,4.67
2019-03-12T00:30:13.753Z,5.43
2019-03-12T00:35:15.509Z,4.80
2019-03-12T00:40:20.142Z,5.13
2019-03-12T00:45:22.587Z,5.37
2019-03-12T00:50:26.049Z,4.80
2019-03-12T00:55:27.687Z,5.50
2019-03-12T01:00:29.258Z,5.90
2019-03-12T01:05:30.902Z,5.53
2019-03-12T01:10:32.581Z,5.60
2019-03-12T01:15:35.358Z,5.27
2019-03-12T01:20:37.058Z,5.47
2019-03-12T01:25:40.450Z,5.43
2019-03-12T01:30:42.070Z,5.07
2019-03-12T01:35:43.697Z,4.80
2019-03-12T01:40:45.459Z,5.60
2019-03-12T01:45:52.125Z,5.33
2019-03-12T01:50:53.764Z,6.87
2019-03-12T01:55:55.471Z,5.60
2019-03-12T02:00:57.182Z,5.70
2019-03-12T02:05:58.822Z,5.83
2019-03-12T02:11:00.448Z,6.97
2019-03-12T02:16:02.034Z,6.93
2019-03-12T02:21:03.682Z,7.27
2019-03-12T02:26:05.444Z,6.40
2019-03-12T02:31:07.074Z,6.73
2019-03-12T02:36:08.858Z,7.60
2019-03-12T02:41:16.400Z,6.97
2019-03-12T02:46:20.889Z,6.33
2019-03-12T02:51:22.582Z,7.53
2019-03-12T02:56:24.577Z,7.13
2019-03-12T03:01:29.414Z,7.00
2019-03-12T03:06:42.302Z,8.30
2019-03-12T03:11:50.619Z,7.50
2019-03-12T03:16:50.723Z,7.20
2019-03-12T03:21:54.507Z,7.27
2019-03-12T03:26:56.098Z,7.47
2019-03-12T03:31:57.880Z,7.83
2019-03-12T03:37:00.353Z,7.37
2019-03-12T03:42:02.245Z,7.50
2019-03-12T03:47:06.900Z,7.07
2019-03-12T03:52:08.532Z,7.67
2019-03-12T03:57:11.587Z,7.10
2019-03-12T04:02:16.102Z,7.53
2019-03-12T04:07:17.715Z,7.87
2019-03-12T04:12:19.601Z,7.03
2019-03-12T04:17:21.183Z,7.53
2019-03-12T04:22:26.402Z,7.40
2019-03-12T04:27:29.673Z,6.87
2019-03-12T04:32:31.445Z,7.50
2019-03-12T04:37:33.055Z,7.73
2019-03-12T04:42:34.831Z,6.97
2019-03-12T04:47:36.418Z,6.53
2019-03-12T04:52:38.079Z,6.23
2019-03-12T04:57:39.740Z,7.37
2019-03-12T05:02:42.435Z,6.53
2019-03-12T05:07:45.105Z,6.43
2019-03-12T05:12:46.726Z,7.37
2019-03-12T05:17:48.389Z,5.67
2019-03-12T05:22:50.118Z,5.87
2019-03-12T05:27:51.800Z,6.27
2019-03-12T05:32:53.411Z,6.40
2019-03-12T05:37:56.912Z,4.93
2019-03-12T05:43:02.604Z,5.40
2019-03-12T05:48:05.435Z,6.23
2019-03-12T05:53:12.175Z,4.90
2019-03-12T05:58:13.965Z,5.40
2019-03-12T06:03:15.890Z,5.27
2019-03-12T06:08:17.558Z,5.50
2019-03-12T06:13:19.389Z,5.50
2019-03-12T06:18:22.118Z,5.33
2019-03-12T06:23:28.222Z,5.47
2019-03-12T06:28:31.196Z,5.83
2019-03-12T06:33:48.662Z,4.80
2019-03-12T06:39:09.867Z,5.00
2019-03-12T06:44:36.870Z,5.07
2019-03-12T06:49:58.040Z,4.40
2019-03-12T06:55:06.059Z,4.70
2019-03-12T07:00:40.345Z,4.77
2019-03-12T07:05:57.071Z,4.13
2019-03-12T07:11:16.525Z,4.50
2019-03-12T07:16:26.462Z,4.43
2019-03-12T07:21:49.681Z,5.17
2019-03-12T07:27:23.062Z,5.33
2019-03-12T07:32:52.180Z,4.43
2019-03-12T07:38:05.707Z,4.90
2019-03-12T07:43:31.862Z,4.50
2019-03-12T07:48:47.407Z,4.80
2019-03-12T07:54:07.816Z,4.17
2019-03-12T07:59:31.837Z,4.67
2019-03-12T08:04:58.719Z,3.97
2019-03-12T08:10:22.729Z,4.13
2019-03-12T08:15:50.252Z,4.07
2019-03-12T08:21:21.462Z,5.20
2019-03-12T08:26:49.817Z,4.00
2019-03-12T08:32:00.474Z,3.73
2019-03-12T08:37:16.165Z,3.60
2019-03-12T08:42:54.197Z,3.93
2019-03-12T08:48:21.416Z,4.60
2019-03-12T08:53:41.098Z,3.83
2019-03-12T08:59:00.674Z,4.10
2019-03-12T09:04:27.526Z,3.97
2019-03-12T09:09:37.289Z,3.73
2019-03-12T09:14:46.851Z,4.10
2019-03-12T09:20:11.033Z,4.20
2019-03-12T09:25:31.015Z,3.53
2019-03-12T09:30:55.559Z,3.93
2019-03-12T09:36:29.697Z,4.33
2019-03-12T09:41:49.914Z,4.00
2019-03-12T09:47:07.138Z,3.70
2019-03-12T09:52:26.924Z,3.80
2019-03-12T09:57:51.213Z,4.20
2019-03-12T10:03:30.408Z,4.00
2019-03-12T10:08:42.691Z,3.97
2019-03-12T10:14:18.885Z,4.03
2019-03-12T10:19:37.265Z,3.30
2019-03-12T10:25:07.216Z,3.63
2019-03-12T10:30:27.534Z,3.47
2019-03-12T10:35:36.046Z,3.00
2019-03-12T10:40:57.265Z,3.50
2019-03-12T10:46:10.188Z,3.37
2019-03-12T10:51:13.199Z,3.57
2019-03-12T10:56:15.165Z,3.50
2019-03-12T11:01:18.209Z,3.57
2019-03-12T11:06:19.936Z,3.47
2019-03-12T11:11:21.594Z,2.97
2019-03-12T11:16:27.227Z,3.07
2019-03-12T11:21:29.158Z,3.67
2019-03-12T11:26:30.755Z,3.23
2019-03-12T11:31:32.589Z,3.20
2019-03-12T11:36:36.106Z,3.40
2019-03-12T11:41:40.282Z,3.20
2019-03-12T11:46:45.199Z,2.97
2019-03-12T11:51:45.645Z,2.83
2019-03-12T11:56:48.813Z,3.53
2019-03-12T12:01:50.404Z,3.60
2019-03-12T12:06:52.197Z,3.10
2019-03-12T12:11:58.460Z,2.87
2019-03-12T12:17:03.427Z,3.10
2019-03-12T12:22:05.212Z,3.07
2019-03-12T12:27:12.247Z,3.20
2019-03-12T12:32:13.898Z,2.93
2019-03-12T12:37:15.611Z,3.43
2019-03-12T12:42:17.357Z,2.63
2019-03-12T12:47:21.160Z,2.97
2019-03-12T12:52:22.853Z,3.27
2019-03-12T12:57:24.467Z,3.07
2019-03-12T13:02:27.086Z,2.37
2019-03-12T13:07:28.707Z,2.87
2019-03-12T13:12:30.333Z,3.30
2019-03-12T13:17:33.433Z,3.87
2019-03-12T13:22:36.374Z,3.10
2019-03-12T13:27:42.543Z,3.27
2019-03-12T13:32:41.500Z,2.90
2019-03-12T13:37:43.314Z,3.13
2019-03-12T13:42:45.510Z,3.00
2019-03-12T13:47:51.277Z,2.50
2019-03-12T13:52:53.335Z,2.57
2019-03-12T13:57:55.022Z,2.90
2019-03-12T14:03:03.910Z,2.97
2019-03-12T14:08:05.632Z,3.17
2019-03-12T14:13:07.238Z,2.67
2019-03-12T14:18:09.221Z,3.20
2019-03-12T14:23:12.191Z,3.40
2019-03-12T14:28:16.838Z,3.20
2019-03-12T14:33:18.464Z,2.63
2019-03-12T14:38:20.246Z,2.83
2019-03-12T14:43:22.246Z,3.33
2019-03-12T14:48:46.612Z,3.03
2019-03-12T14:53:48.671Z,2.60
2019-03-12T14:58:51.390Z,3.43
2019-03-12T15:03:53.489Z,3.30
2019-03-12T15:08:55.155Z,3.40
2019-03-12T15:13:58.266Z,3.50
2019-03-12T15:18:59.990Z,2.90
2019-03-12T15:24:01.700Z,3.60
2019-03-12T15:29:03.351Z,3.73
2019-03-12T15:34:07.099Z,3.63
2019-03-12T15:39:11.035Z,3.30
2019-03-12T15:44:12.799Z,3.33
2019-03-12T15:49:14.487Z,3.37
2019-03-12T15:54:16.095Z,3.70
2019-03-12T15:59:19.501Z,4.20
2019-03-12T16:04:21.250Z,3.13
2019-03-12T16:09:22.987Z,3.63
2019-03-12T16:14:28.273Z,3.40
2019-03-12T16:19:30.289Z,4.10
2019-03-12T16:24:36.752Z,3.60
2019-03-12T16:29:40.650Z,3.17
2019-03-12T16:34:43.290Z,3.57
2019-03-12T16:39:47.230Z,4.00
2019-03-12T16:44:49.055Z,4.53
2019-03-12T16:49:50.827Z,3.73
2019-03-12T16:54:52.575Z,3.20
2019-03-12T16:59:54.290Z,4.17
2019-03-12T17:05:03.951Z,3.23
2019-03-12T17:10:06.426Z,3.97
2019-03-12T17:15:09.020Z,4.43
2019-03-12T17:20:14.825Z,4.10
2019-03-12T17:25:17.311Z,3.30
2019-03-12T17:30:19.175Z,3.67
2019-03-12T17:35:21.798Z,3.57
2019-03-12T17:40:25.422Z,4.13
2019-03-12T17:45:27.074Z,4.43
2019-03-12T17:50:29.028Z,3.87
2019-03-12T17:55:32.308Z,3.80
2019-03-12T18:00:35.397Z,3.80
2019-03-12T18:05:38.330Z,3.93
2019-03-12T18:10:39.986Z,3.53
2019-03-12T18:15:41.780Z,4.23
2019-03-12T18:20:44.181Z,4.37
2019-03-12T18:25:51.200Z,4.03
2019-03-12T18:30:52.775Z,4.00
2019-03-12T18:36:00.725Z,4.73
2019-03-12T18:41:02.573Z,4.50
2019-03-12T18:46:04.201Z,5.03
2019-03-12T18:51:05.849Z,4.83
2019-03-12T18:56:07.978Z,5.27
2019-03-12T19:01:10.254Z,5.30
2019-03-12T19:06:12.410Z,4.03
2019-03-12T19:11:15.002Z,2.20
2019-03-12T19:16:19.846Z,1.30
2019-03-12T19:21:25.397Z,1.53
2019-03-12T19:26:29.329Z,1.30
2019-03-12T19:31:50.593Z,1.50
2019-03-12T19:36:52.226Z,1.50
2019-03-12T19:41:55.673Z,1.63
2019-03-12T19:46:58.178Z,1.80
2019-03-12T19:52:02.319Z,1.73
2019-03-12T19:57:05.392Z,1.40
2019-03-12T20:02:16.122Z,1.50
2019-03-12T20:07:14.082Z,1.73
2019-03-12T20:12:37.882Z,1.50
2019-03-12T20:17:59.317Z,1.80
2019-03-12T20:23:27.231Z,2.10
2019-03-12T20:28:57.209Z,1.90
2019-03-12T20:34:27.512Z,2.03
2019-03-12T20:39:47.460Z,1.93
2019-03-12T20:45:12.417Z,2.20
2019-03-12T20:50:37.362Z,1.70
2019-03-12T20:55:57.153Z,2.23
2019-03-12T21:01:29.360Z,2.30
2019-03-12T21:06:46.383Z,2.17
2019-03-12T21:12:06.346Z,2.50
2019-03-12T21:17:31.666Z,2.53
2019-03-12T21:22:42.418Z,1.87
2019-03-12T21:28:03.668Z,2.50
2019-03-12T21:33:15.243Z,2.30
2019-03-12T21:38:12.202Z,1.97
2019-03-12T21:43:16.299Z,2.77
2019-03-12T21:48:17.960Z,2.13
2019-03-12T21:53:20.029Z,2.10
2019-03-12T21:58:23.468Z,2.67
2019-03-12T22:03:25.101Z,2.50
2019-03-12T22:08:27.312Z,2.33
2019-03-12T22:13:29.067Z,2.10
2019-03-12T22:18:33.915Z,2.30
2019-03-12T22:23:39.138Z,2.40
2019-03-12T22:28:42.043Z,2.63
2019-03-12T22:33:43.844Z,2.70
2019-03-12T22:38:45.876Z,2.97
2019-03-12T22:43:47.540Z,2.73
2019-03-12T22:48:49.366Z,2.80
2019-03-12T22:53:51.144Z,2.80
2019-03-12T22:58:52.733Z,3.37
2019-03-12T23:03:55.439Z,3.10
2019-03-12T23:09:02.722Z,3.13
2019-03-12T23:14:05.270Z,3.53
2019-03-12T23:19:09.333Z,3.80
2019-03-12T23:24:11.041Z,3.53
2019-03-12T23:29:12.645Z,3.30
2019-03-12T23:34:14.271Z,3.00
2019-03-12T23:39:15.900Z,2.70
2019-03-12T23:44:19.735Z,2.93
2019-03-12T23:49:21.547Z,2.80
2019-03-12T23:54:23.735Z,3.67
2019-03-12T23:59:25.423Z,2.63
